Time;durP1;ratioP1;P1;durP2;ratioP2;P2;SDS_P1;SDS_P2;PMS_P1;PMS_P2;Temp;Humidity;BMP_temperature;BMP_pressure;BME280_temperature;BME280_humidity;BME280_pressure;Samples;Min_cycle;Max_cycle;Signal;HPM_P1;HPM_P2
2023/03/27 00:01:10;;;;;;;4.50;3.30;;;;;;;;;;5072526;28;20261;-89
2023/03/27 00:03:38;;;;;;;3.30;3.00;;;;;;;;;;5072430;28;20321;-89
2023/03/27 00:06:07;;;;;;;3.90;3.10;;;;;;;;;;5073573;28;20404;-89
2023/03/27 00:08:35;;;;;;;3.30;3.00;;;;;;;;;;5072497;28;20233;-89
2023/03/27 00:11:03;;;;;;;4.70;3.43;;;;;;;;;;5072723;28;20225;-88
2023/03/27 00:13:30;;;;;;;6.37;3.10;;;;;;;;;;5074855;28;20256;-89
2023/03/27 00:15:59;;;;;;;5.57;3.60;;;;;;;;;;5076639;28;20221;-89
2023/03/27 00:18:28;;;;;;;7.30;3.57;;;;;;;;;;5076263;28;20243;-88
2023/03/27 00:20:57;;;;;;;3.27;2.97;;;;;;;;;;5076308;28;20225;-89
2023/03/27 00:23:24;;;;;;;5.43;3.07;;;;;;;;;;5076146;28;20282;-89
2023/03/27 00:25:52;;;;;;;6.87;3.63;;;;;;;;;;5076348;28;20197;-90
2023/03/27 00:28:19;;;;;;;8.00;3.00;;;;;;;;;;5075521;28;20286;-88
2023/03/27 00:30:48;;;;;;;6.30;2.63;;;;;;;;;;5076327;28;20225;-88
2023/03/27 00:33:16;;;;;;;6.60;2.80;;;;;;;;;;5075679;28;20293;-89
2023/03/27 00:35:45;;;;;;;6.60;2.70;;;;;;;;;;5076455;28;20225;-88
2023/03/27 00:38:12;;;;;;;6.97;2.93;;;;;;;;;;5075552;28;20230;-89
2023/03/27 00:40:40;;;;;;;4.27;3.00;;;;;;;;;;5076234;28;20221;-88
2023/03/27 00:43:19;;;;;;;4.63;2.90;;;;;;;;;;5075838;28;20592;-88
2023/03/27 00:45:46;;;;;;;7.53;2.73;;;;;;;;;;5076211;28;20556;-88
2023/03/27 00:48:14;;;;;;;8.73;3.20;;;;;;;;;;5075534;28;20276;-88
2023/03/27 00:50:45;;;;;;;6.57;2.93;;;;;;;;;;5076164;28;20587;-88
2023/03/27 00:53:14;;;;;;;6.70;3.03;;;;;;;;;;5081559;28;20233;-88
2023/03/27 00:55:43;;;;;;;5.43;2.63;;;;;;;;;;5077082;28;20210;-88
2023/03/27 00:58:14;;;;;;;10.77;3.23;;;;;;;;;;5075523;28;20229;-88
2023/03/27 01:00:41;;;;;;;8.87;2.97;;;;;;;;;;5076035;28;20229;-88
2023/03/27 01:03:09;;;;;;;4.97;2.80;;;;;;;;;;5073431;28;20229;-88
2023/03/27 01:05:36;;;;;;;6.07;2.83;;;;;;;;;;5075879;28;20213;-88
2023/03/27 01:08:06;;;;;;;6.97;2.97;;;;;;;;;;5075127;28;20233;-88
2023/03/27 01:10:41;;;;;;;7.50;3.00;;;;;;;;;;5075215;28;20681;-88
2023/03/27 01:13:15;;;;;;;8.20;3.17;;;;;;;;;;5074669;28;20307;-88
2023/03/27 01:15:44;;;;;;;5.10;2.87;;;;;;;;;;5075504;28;20536;-88
2023/03/27 01:18:19;;;;;;;9.67;2.80;;;;;;;;;;5075266;28;20233;-88
2023/03/27 01:21:02;;;;;;;10.50;3.70;;;;;;;;;;5075115;28;20743;-89
2023/03/27 01:23:47;;;;;;;6.77;3.00;;;;;;;;;;5074218;28;20264;-88
2023/03/27 01:26:33;;;;;;;5.93;2.80;;;;;;;;;;5069386;28;20226;-87
2023/03/27 01:29:04;;;;;;;6.93;3.13;;;;;;;;;;5055398;28;20265;-89
2023/03/27 01:31:41;;;;;;;9.57;2.97;;;;;;;;;;5070416;28;20255;-88
2023/03/27 01:34:22;;;;;;;4.57;2.67;;;;;;;;;;5075322;28;20213;-89
2023/03/27 01:37:10;;;;;;;7.33;3.30;;;;;;;;;;5075079;28;20233;-88
2023/03/27 01:39:46;;;;;;;7.50;2.80;;;;;;;;;;5070115;28;20729;-89
2023/03/27 01:42:18;;;;;;;5.20;2.90;;;;;;;;;;5074053;28;20244;-88
2023/03/27 01:44:47;;;;;;;6.83;3.17;;;;;;;;;;5074672;28;20620;-89
2023/03/27 01:47:27;;;;;;;7.93;2.70;;;;;;;;;;5074034;28;20233;-90
2023/03/27 01:49:56;;;;;;;7.23;3.30;;;;;;;;;;5074456;28;20217;-89
2023/03/27 01:52:25;;;;;;;11.00;2.93;;;;;;;;;;5073849;28;20229;-89
2023/03/27 01:55:02;;;;;;;6.30;2.83;;;;;;;;;;5074835;28;20658;-89
2023/03/27 01:57:33;;;;;;;6.20;2.70;;;;;;;;;;5074211;28;20258;-89
2023/03/27 02:00:10;;;;;;;6.43;2.60;;;;;;;;;;5074372;28;20252;-90
2023/03/27 02:02:38;;;;;;;7.10;2.40;;;;;;;;;;5073680;28;20236;-89
2023/03/27 02:05:08;;;;;;;9.83;2.43;;;;;;;;;;5074300;28;20206;-89
2023/03/27 02:07:37;;;;;;;7.03;2.67;;;;;;;;;;5073496;28;20238;-89
2023/03/27 02:10:08;;;;;;;5.47;2.37;;;;;;;;;;5074322;28;20232;-89
2023/03/27 02:12:38;;;;;;;10.00;2.70;;;;;;;;;;5073880;28;20225;-90
2023/03/27 02:15:08;;;;;;;3.10;2.47;;;;;;;;;;5074285;28;20221;-88
2023/03/27 02:17:38;;;;;;;6.33;2.50;;;;;;;;;;5073898;28;20237;-90
2023/03/27 02:20:09;;;;;;;9.53;2.93;;;;;;;;;;5074079;28;20267;-90
2023/03/27 02:22:38;;;;;;;2.63;2.20;;;;;;;;;;5072831;28;20284;-88
2023/03/27 02:25:20;;;;;;;6.77;2.80;;;;;;;;;;5074154;28;20284;-89
2023/03/27 02:27:50;;;;;;;8.17;2.57;;;;;;;;;;5073810;28;20241;-90
2023/03/27 02:30:22;;;;;;;5.93;2.67;;;;;;;;;;5073946;28;20221;-89
2023/03/27 02:32:54;;;;;;;9.50;2.80;;;;;;;;;;5073799;28;20265;-89
2023/03/27 02:35:30;;;;;;;8.60;3.20;;;;;;;;;;5074081;28;20669;-90
2023/03/27 02:38:04;;;;;;;13.07;3.30;;;;;;;;;;5073446;28;20608;-89
2023/03/27 02:40:36;;;;;;;6.73;2.70;;;;;;;;;;5074083;28;20220;-90
2023/03/27 02:43:07;;;;;;;7.43;2.70;;;;;;;;;;5073132;28;20239;-90
2023/03/27 02:45:40;;;;;;;9.07;2.80;;;;;;;;;;5074153;28;20200;-90
2023/03/27 02:48:11;;;;;;;8.30;2.47;;;;;;;;;;5073078;28;20236;-90
2023/03/27 02:50:39;;;;;;;9.53;3.37;;;;;;;;;;5073152;28;20243;-90
2023/03/27 02:53:07;;;;;;;9.73;2.50;;;;;;;;;;5073251;28;20263;-89
2023/03/27 02:55:36;;;;;;;6.37;2.30;;;;;;;;;;5073921;28;20206;-90
2023/03/27 02:58:06;;;;;;;9.13;2.93;;;;;;;;;;5073624;28;20239;-89
2023/03/27 03:00:38;;;;;;;8.07;2.73;;;;;;;;;;5074016;28;20228;-88
2023/03/27 03:03:08;;;;;;;8.87;2.53;;;;;;;;;;5072901;28;20255;-89
2023/03/27 03:05:54;;;;;;;8.43;3.03;;;;;;;;;;5073919;28;20685;-90
2023/03/27 03:08:21;;;;;;;7.57;2.40;;;;;;;;;;5071943;28;20230;-89
2023/03/27 03:10:48;;;;;;;7.33;2.90;;;;;;;;;;5073452;28;20604;-90
2023/03/27 03:13:15;;;;;;;6.83;3.20;;;;;;;;;;5073053;28;20237;-89
2023/03/27 03:15:45;;;;;;;6.33;2.97;;;;;;;;;;5074022;28;20206;-89
2023/03/27 03:18:12;;;;;;;5.90;2.43;;;;;;;;;;5072849;28;20320;-89
2023/03/27 03:20:40;;;;;;;4.47;2.30;;;;;;;;;;5073658;28;20274;-89
2023/03/27 03:23:07;;;;;;;3.87;2.43;;;;;;;;;;5072607;28;20248;-89
2023/03/27 03:25:34;;;;;;;6.73;2.93;;;;;;;;;;5072920;28;20208;-89
2023/03/27 03:28:06;;;;;;;8.50;2.40;;;;;;;;;;5072433;28;20572;-87
2023/03/27 03:30:34;;;;;;;3.13;2.30;;;;;;;;;;5072322;28;20253;-90
2023/03/27 03:33:02;;;;;;;9.10;2.60;;;;;;;;;;5072172;28;20231;-88
2023/03/27 03:35:29;;;;;;;4.13;2.13;;;;;;;;;;5073168;28;20215;-88
2023/03/27 03:37:58;;;;;;;6.37;2.60;;;;;;;;;;5072004;28;20737;-88
2023/03/27 03:40:25;;;;;;;4.83;2.27;;;;;;;;;;5072468;28;20564;-88
2023/03/27 03:42:53;;;;;;;4.17;2.40;;;;;;;;;;5071875;28;20225;-88
2023/03/27 03:45:20;;;;;;;7.20;2.67;;;;;;;;;;5072725;28;20538;-88
2023/03/27 03:47:47;;;;;;;10.93;3.87;;;;;;;;;;5073490;28;20230;-88
2023/03/27 03:50:15;;;;;;;6.73;3.03;;;;;;;;;;5076072;28;20230;-87
2023/03/27 03:52:42;;;;;;;4.27;2.50;;;;;;;;;;5075904;28;20228;-88
2023/03/27 03:55:10;;;;;;;6.17;2.70;;;;;;;;;;5076171;28;20202;-88
2023/03/27 03:57:37;;;;;;;5.33;2.40;;;;;;;;;;5075513;28;20264;-88
2023/03/27 04:00:07;;;;;;;3.57;2.23;;;;;;;;;;5075968;28;20224;-88
2023/03/27 04:02:35;;;;;;;3.60;2.67;;;;;;;;;;5055995;28;20263;-88
2023/03/27 04:05:03;;;;;;;9.40;2.80;;;;;;;;;;5075926;28;20201;-88
2023/03/27 04:07:31;;;;;;;8.50;2.73;;;;;;;;;;5075674;28;20235;-88
2023/03/27 04:09:59;;;;;;;5.67;2.40;;;;;;;;;;5075835;28;20230;-89
2023/03/27 04:12:27;;;;;;;6.03;2.80;;;;;;;;;;5075248;28;20735;-88
2023/03/27 04:14:54;;;;;;;7.17;2.70;;;;;;;;;;5075324;28;20207;-88
2023/03/27 04:17:25;;;;;;;5.47;2.87;;;;;;;;;;5075349;28;20234;-89
2023/03/27 04:19:53;;;;;;;2.47;2.30;;;;;;;;;;5076211;28;20236;-88
2023/03/27 04:22:21;;;;;;;5.13;2.60;;;;;;;;;;5075058;28;20260;-88
2023/03/27 04:24:50;;;;;;;8.73;3.10;;;;;;;;;;5076086;28;20216;-88
2023/03/27 04:27:17;;;;;;;4.43;2.63;;;;;;;;;;5075078;28;20275;-88
2023/03/27 04:29:46;;;;;;;5.50;2.47;;;;;;;;;;5075469;28;20238;-88
2023/03/27 04:32:17;;;;;;;9.07;3.03;;;;;;;;;;5075344;28;20316;-88
2023/03/27 04:34:45;;;;;;;7.87;3.30;;;;;;;;;;5075257;28;20193;-86
2023/03/27 04:37:12;;;;;;;4.67;2.80;;;;;;;;;;5074990;28;20244;-87
2023/03/27 04:39:41;;;;;;;4.27;2.57;;;;;;;;;;5074668;28;20231;-86
2023/03/27 04:42:10;;;;;;;7.93;2.80;;;;;;;;;;5074910;28;20261;-90
2023/03/27 04:44:37;;;;;;;4.13;2.40;;;;;;;;;;5075653;28;20211;-90
2023/03/27 04:47:05;;;;;;;6.03;3.07;;;;;;;;;;5074938;28;20221;-89
2023/03/27 04:49:37;;;;;;;3.83;2.80;;;;;;;;;;5075487;28;20705;-88
2023/03/27 04:52:04;;;;;;;5.20;2.43;;;;;;;;;;5075159;28;20693;-90
2023/03/27 04:54:32;;;;;;;2.57;2.37;;;;;;;;;;5075312;28;20206;-90
2023/03/27 04:57:00;;;;;;;6.87;2.53;;;;;;;;;;5075390;28;20323;-89
2023/03/27 04:59:30;;;;;;;6.50;2.80;;;;;;;;;;5074302;28;20229;-89
2023/03/27 05:01:57;;;;;;;13.40;2.97;;;;;;;;;;5073666;28;20286;-88
2023/03/27 05:04:26;;;;;;;5.20;3.00;;;;;;;;;;5073553;28;20674;-87
2023/03/27 05:06:53;;;;;;;8.97;2.50;;;;;;;;;;5073601;28;20283;-87
2023/03/27 05:09:20;;;;;;;3.47;2.57;;;;;;;;;;5074236;28;21496;-87
2023/03/27 05:11:48;;;;;;;4.60;2.93;;;;;;;;;;5073437;28;20359;-88
2023/03/27 05:14:16;;;;;;;5.83;2.67;;;;;;;;;;5073578;28;20205;-86
2023/03/27 05:16:44;;;;;;;7.43;2.73;;;;;;;;;;5072909;28;20312;-85
2023/03/27 05:19:12;;;;;;;8.73;2.63;;;;;;;;;;5073402;28;20597;-82
2023/03/27 05:21:39;;;;;;;10.60;3.00;;;;;;;;;;5074199;28;20249;-86
2023/03/27 05:24:07;;;;;;;5.50;2.57;;;;;;;;;;5074939;28;20209;-85
2023/03/27 05:26:34;;;;;;;9.33;2.73;;;;;;;;;;5065643;28;20237;-86
2023/03/27 05:29:02;;;;;;;4.93;2.67;;;;;;;;;;5074394;28;20197;-86
2023/03/27 05:31:31;;;;;;;7.63;3.03;;;;;;;;;;5073451;28;20202;-86
2023/03/27 05:34:00;;;;;;;3.40;2.70;;;;;;;;;;5074391;28;20202;-84
2023/03/27 05:36:28;;;;;;;6.60;2.40;;;;;;;;;;5072853;28;20277;-84
2023/03/27 05:38:56;;;;;;;5.57;2.67;;;;;;;;;;5073816;28;20292;-85
2023/03/27 05:41:24;;;;;;;7.43;3.20;;;;;;;;;;5072447;28;20274;-85
2023/03/27 05:43:51;;;;;;;3.47;2.30;;;;;;;;;;5073275;28;20685;-84
2023/03/27 05:46:18;;;;;;;10.27;2.70;;;;;;;;;;5072979;28;20209;-84
2023/03/27 05:48:45;;;;;;;5.43;2.37;;;;;;;;;;5073235;28;20208;-84
2023/03/27 05:51:13;;;;;;;2.73;2.40;;;;;;;;;;5072335;28;20229;-86
2023/03/27 05:53:41;;;;;;;8.80;2.70;;;;;;;;;;5073148;28;20205;-84
2023/03/27 05:56:08;;;;;;;6.23;2.77;;;;;;;;;;5073313;28;20240;-84
2023/03/27 05:58:35;;;;;;;6.00;2.90;;;;;;;;;;5072464;28;20310;-85
2023/03/27 06:01:03;;;;;;;3.40;3.03;;;;;;;;;;5073338;28;20298;-84
2023/03/27 06:03:33;;;;;;;6.53;2.60;;;;;;;;;;5072506;28;20237;-85
2023/03/27 06:06:00;;;;;;;8.20;3.27;;;;;;;;;;5072973;28;20299;-85
2023/03/27 06:08:29;;;;;;;3.00;2.73;;;;;;;;;;5072391;28;20237;-84
2023/03/27 06:10:56;;;;;;;2.80;2.37;;;;;;;;;;5072290;28;20276;-84
2023/03/27 06:13:23;;;;;;;6.93;3.07;;;;;;;;;;5071874;28;20238;-83
2023/03/27 06:15:53;;;;;;;3.83;2.53;;;;;;;;;;5072604;28;20266;-84
2023/03/27 06:18:21;;;;;;;7.93;2.73;;;;;;;;;;5072445;28;20244;-85
2023/03/27 06:20:48;;;;;;;3.87;2.80;;;;;;;;;;5072985;28;20236;-85
2023/03/27 06:23:26;;;;;;;7.83;2.70;;;;;;;;;;5071873;28;20615;-84
2023/03/27 06:25:54;;;;;;;8.37;2.53;;;;;;;;;;5072667;28;20192;-84
2023/03/27 06:28:21;;;;;;;4.90;2.80;;;;;;;;;;5072421;28;20248;-86
2023/03/27 06:30:49;;;;;;;6.97;2.57;;;;;;;;;;5072711;28;20222;-84
2023/03/27 06:33:16;;;;;;;7.03;2.70;;;;;;;;;;5071677;28;20599;-84
2023/03/27 06:35:44;;;;;;;7.87;3.13;;;;;;;;;;5072176;28;20209;-84
2023/03/27 06:38:11;;;;;;;4.00;2.70;;;;;;;;;;5071831;28;20238;-85
2023/03/27 06:40:47;;;;;;;5.13;2.37;;;;;;;;;;5073350;28;20601;-88
2023/03/27 06:43:21;;;;;;;4.57;2.43;;;;;;;;;;5072632;28;20713;-88
2023/03/27 06:45:49;;;;;;;4.07;2.70;;;;;;;;;;5074029;28;20203;-89
2023/03/27 06:48:33;;;;;;;8.40;2.60;;;;;;;;;;5073307;28;20267;-88
2023/03/27 06:51:00;;;;;;;5.10;2.10;;;;;;;;;;5073547;28;20225;-88
2023/03/27 06:53:28;;;;;;;6.80;2.83;;;;;;;;;;5073189;28;20236;-88
2023/03/27 06:55:55;;;;;;;5.00;2.47;;;;;;;;;;5073851;28;20205;-89
2023/03/27 06:58:41;;;;;;;6.87;2.90;;;;;;;;;;5072986;28;20244;-88
2023/03/27 07:01:08;;;;;;;8.80;2.83;;;;;;;;;;5073526;28;20225;-88
2023/03/27 07:03:36;;;;;;;4.97;2.33;;;;;;;;;;5073185;28;20232;-89
2023/03/27 07:06:03;;;;;;;5.90;2.60;;;;;;;;;;5073943;28;20211;-90
2023/03/27 07:08:30;;;;;;;7.30;2.80;;;;;;;;;;5071675;28;20244;-89
2023/03/27 07:10:58;;;;;;;5.50;2.60;;;;;;;;;;5072076;28;20241;-90
2023/03/27 07:13:26;;;;;;;5.50;2.60;;;;;;;;;;5072580;28;20279;-89
2023/03/27 07:15:54;;;;;;;8.70;3.17;;;;;;;;;;5073888;28;20213;-89
2023/03/27 07:18:41;;;;;;;5.93;2.63;;;;;;;;;;5073198;28;20256;-89
2023/03/27 07:21:08;;;;;;;4.27;2.63;;;;;;;;;;5073338;28;20599;-89
2023/03/27 07:23:36;;;;;;;5.93;2.83;;;;;;;;;;5075470;28;20242;-86
2023/03/27 07:26:03;;;;;;;10.37;2.63;;;;;;;;;;5076609;28;20224;-86
2023/03/27 07:28:31;;;;;;;6.03;2.57;;;;;;;;;;5076430;28;20241;-87
2023/03/27 07:31:06;;;;;;;8.27;3.20;;;;;;;;;;5076286;28;20596;-86
2023/03/27 07:33:33;;;;;;;8.77;2.57;;;;;;;;;;5072454;28;20236;-86
2023/03/27 07:36:01;;;;;;;5.20;2.40;;;;;;;;;;5076537;28;20223;-86
2023/03/27 07:38:28;;;;;;;4.83;2.37;;;;;;;;;;5074984;28;20290;-85
2023/03/27 07:40:56;;;;;;;8.47;2.73;;;;;;;;;;5076058;28;20231;-86
2023/03/27 07:43:23;;;;;;;5.90;2.70;;;;;;;;;;5074908;28;20289;-86
2023/03/27 07:45:51;;;;;;;5.93;3.20;;;;;;;;;;5074494;28;20209;-86
2023/03/27 07:48:21;;;;;;;8.63;2.40;;;;;;;;;;5075418;28;20235;-86
2023/03/27 07:50:48;;;;;;;6.00;2.73;;;;;;;;;;5076098;28;20251;-86
2023/03/27 07:53:15;;;;;;;4.63;2.50;;;;;;;;;;5075523;28;20236;-86
2023/03/27 07:55:45;;;;;;;7.77;2.30;;;;;;;;;;5075888;28;20212;-86
2023/03/27 07:58:12;;;;;;;4.73;2.60;;;;;;;;;;5074673;28;20233;-86
2023/03/27 08:00:41;;;;;;;3.97;2.30;;;;;;;;;;5075962;28;20240;-86
2023/03/27 08:03:16;;;;;;;7.97;2.90;;;;;;;;;;5075133;28;20366;-86
2023/03/27 08:05:45;;;;;;;4.67;2.37;;;;;;;;;;5075857;28;20662;-86
2023/03/27 08:08:12;;;;;;;5.47;2.23;;;;;;;;;;5074885;28;20648;-86
2023/03/27 08:10:39;;;;;;;8.37;2.40;;;;;;;;;;5076655;28;20240;-86
2023/03/27 08:13:07;;;;;;;7.13;2.23;;;;;;;;;;5074782;28;20232;-86
2023/03/27 08:15:34;;;;;;;8.50;2.60;;;;;;;;;;5075742;28;20212;-86
2023/03/27 08:18:01;;;;;;;9.40;3.37;;;;;;;;;;5074715;28;20248;-87
2023/03/27 08:20:29;;;;;;;8.07;3.07;;;;;;;;;;5075525;28;20229;-86
2023/03/27 08:22:59;;;;;;;7.20;2.53;;;;;;;;;;5074457;28;20694;-86
2023/03/27 08:25:28;;;;;;;8.50;2.07;;;;;;;;;;5074979;28;20700;-85
2023/03/27 08:27:55;;;;;;;4.63;2.60;;;;;;;;;;5074351;28;20233;-86
2023/03/27 08:30:22;;;;;;;5.50;2.20;;;;;;;;;;5075239;28;20229;-86
2023/03/27 08:32:50;;;;;;;4.67;2.17;;;;;;;;;;5074184;28;20229;-85
2023/03/27 08:35:17;;;;;;;5.33;2.07;;;;;;;;;;5064941;28;20670;-86
2023/03/27 08:37:44;;;;;;;4.63;1.80;;;;;;;;;;5054667;28;20303;-86
2023/03/27 08:40:19;;;;;;;5.93;2.13;;;;;;;;;;5069558;28;20225;-86
2023/03/27 08:42:47;;;;;;;9.17;2.47;;;;;;;;;;5074242;28;20228;-86
2023/03/27 08:45:18;;;;;;;4.57;1.83;;;;;;;;;;5073868;28;20206;-85
2023/03/27 08:47:49;;;;;;;5.03;2.07;;;;;;;;;;5073629;28;20233;-83
2023/03/27 08:50:21;;;;;;;4.77;2.47;;;;;;;;;;5056689;28;20230;-87
2023/03/27 08:52:49;;;;;;;5.43;2.20;;;;;;;;;;5054428;28;20258;-83
2023/03/27 08:55:19;;;;;;;4.50;2.33;;;;;;;;;;5055138;28;20214;-84
2023/03/27 08:57:49;;;;;;;4.87;2.00;;;;;;;;;;5067801;28;20237;-87
2023/03/27 09:00:22;;;;;;;4.33;2.03;;;;;;;;;;5073616;28;20724;-83
2023/03/27 09:02:52;;;;;;;2.93;1.70;;;;;;;;;;5073538;28;20248;-83
2023/03/27 09:05:22;;;;;;;4.73;1.87;;;;;;;;;;5074350;28;20200;-84
2023/03/27 09:07:55;;;;;;;5.40;2.10;;;;;;;;;;5073464;28;20600;-84
2023/03/27 09:10:26;;;;;;;6.50;2.20;;;;;;;;;;5073621;28;20225;-84
2023/03/27 09:12:59;;;;;;;7.50;1.93;;;;;;;;;;5062443;28;20712;-84
2023/03/27 09:15:27;;;;;;;9.07;2.43;;;;;;;;;;5053905;28;20186;-84
2023/03/27 09:17:56;;;;;;;4.53;2.27;;;;;;;;;;5066486;28;20819;-84
2023/03/27 09:20:24;;;;;;;5.33;2.00;;;;;;;;;;5073932;28;20236;-83
2023/03/27 09:22:54;;;;;;;5.03;2.10;;;;;;;;;;5073295;28;20241;-84
2023/03/27 09:25:27;;;;;;;4.80;2.23;;;;;;;;;;5074062;28;20209;-83
2023/03/27 09:27:54;;;;;;;4.27;2.23;;;;;;;;;;5073190;28;20237;-84
2023/03/27 09:30:24;;;;;;;7.20;2.80;;;;;;;;;;5073810;28;20233;-84
2023/03/27 09:32:54;;;;;;;4.40;2.30;;;;;;;;;;5073011;28;20256;-84
2023/03/27 09:35:21;;;;;;;4.70;1.90;;;;;;;;;;5073540;28;20209;-84
2023/03/27 09:37:49;;;;;;;7.93;2.10;;;;;;;;;;5072612;28;20240;-84
2023/03/27 09:40:23;;;;;;;10.07;1.90;;;;;;;;;;5073375;28;20225;-84
2023/03/27 09:42:53;;;;;;;4.37;1.80;;;;;;;;;;5061116;28;20232;-84
2023/03/27 09:45:21;;;;;;;5.33;1.80;;;;;;;;;;5070464;28;20243;-84
2023/03/27 09:47:56;;;;;;;5.30;1.93;;;;;;;;;;5068806;28;20245;-85
2023/03/27 09:50:25;;;;;;;7.07;1.83;;;;;;;;;;5065285;28;20229;-84
2023/03/27 09:52:54;;;;;;;1.60;1.50;;;;;;;;;;5053293;28;20316;-85
2023/03/27 09:55:23;;;;;;;6.07;1.80;;;;;;;;;;5071558;28;20697;-85
2023/03/27 09:58:01;;;;;;;5.37;2.20;;;;;;;;;;5073097;28;20237;-84
2023/03/27 10:00:30;;;;;;;3.67;1.60;;;;;;;;;;5073296;28;20332;-84
2023/03/27 10:03:02;;;;;;;1.80;1.70;;;;;;;;;;5072155;28;20237;-85
2023/03/27 10:05:30;;;;;;;3.87;1.87;;;;;;;;;;5073230;28;20232;-84
2023/03/27 10:07:57;;;;;;;4.93;1.83;;;;;;;;;;5072635;28;20224;-84
2023/03/27 10:10:25;;;;;;;4.70;1.90;;;;;;;;;;5072586;28;20233;-85
2023/03/27 10:12:54;;;;;;;5.60;1.90;;;;;;;;;;5067105;28;20232;-84
2023/03/27 10:15:37;;;;;;;2.47;1.53;;;;;;;;;;5071740;28;20209;-85
2023/03/27 10:18:09;;;;;;;2.27;1.50;;;;;;;;;;5071875;28;20244;-84
2023/03/27 10:20:36;;;;;;;2.23;1.40;;;;;;;;;;5072456;28;20229;-84
2023/03/27 10:23:07;;;;;;;4.37;1.60;;;;;;;;;;5070754;28;20264;-85
2023/03/27 10:25:36;;;;;;;3.10;1.77;;;;;;;;;;5072291;28;20209;-84
2023/03/27 10:28:08;;;;;;;3.30;1.93;;;;;;;;;;5065280;28;20324;-84
2023/03/27 10:30:39;;;;;;;3.10;1.60;;;;;;;;;;5051553;28;20625;-86
2023/03/27 10:33:06;;;;;;;1.83;1.37;;;;;;;;;;5051480;28;20238;-84
2023/03/27 10:35:35;;;;;;;4.70;1.80;;;;;;;;;;5066999;28;20734;-84
2023/03/27 10:38:03;;;;;;;2.53;1.37;;;;;;;;;;5071401;28;20315;-85
2023/03/27 10:40:32;;;;;;;3.30;1.50;;;;;;;;;;5071737;28;20235;-85
2023/03/27 10:43:02;;;;;;;2.23;1.57;;;;;;;;;;5071326;28;20229;-85
2023/03/27 10:45:31;;;;;;;2.77;1.60;;;;;;;;;;5071736;28;20236;-86
2023/03/27 10:48:01;;;;;;;3.70;1.73;;;;;;;;;;5071742;28;20232;-85
2023/03/27 10:50:31;;;;;;;2.43;1.20;;;;;;;;;;5072213;28;20588;-85
2023/03/27 10:53:01;;;;;;;3.20;1.43;;;;;;;;;;5071524;28;20236;-85
2023/03/27 10:55:36;;;;;;;3.10;1.30;;;;;;;;;;5071989;28;20193;-85
2023/03/27 10:58:06;;;;;;;2.00;1.20;;;;;;;;;;5071285;28;20732;-85
2023/03/27 11:00:35;;;;;;;2.77;1.30;;;;;;;;;;5071453;28;20728;-85
2023/03/27 11:03:10;;;;;;;3.10;1.40;;;;;;;;;;5071180;28;20647;-85
2023/03/27 11:05:38;;;;;;;2.47;1.57;;;;;;;;;;5071771;28;20244;-85
2023/03/27 11:08:09;;;;;;;3.57;1.50;;;;;;;;;;5071113;28;20248;-85
2023/03/27 11:10:37;;;;;;;2.13;1.43;;;;;;;;;;5035555;28;1042267;-84
2023/03/27 11:13:09;;;;;;;1.97;1.67;;;;;;;;;;5071383;28;20236;-85
2023/03/27 11:15:41;;;;;;;2.73;1.53;;;;;;;;;;5072769;28;20225;-86
2023/03/27 11:18:13;;;;;;;1.77;1.20;;;;;;;;;;5072307;28;20753;-85
2023/03/27 11:20:44;;;;;;;2.80;1.30;;;;;;;;;;5072822;28;20354;-84
2023/03/27 11:23:16;;;;;;;3.10;1.60;;;;;;;;;;5071675;28;20229;-85
2023/03/27 11:25:45;;;;;;;3.13;1.50;;;;;;;;;;5072649;28;20213;-85
2023/03/27 11:28:17;;;;;;;1.93;1.40;;;;;;;;;;5071994;28;20323;-86
2023/03/27 11:30:48;;;;;;;3.47;1.57;;;;;;;;;;5072655;28;20732;-86
2023/03/27 11:33:25;;;;;;;1.63;1.20;;;;;;;;;;5072211;28;20732;-86
2023/03/27 11:35:58;;;;;;;2.70;1.60;;;;;;;;;;5072932;28;20204;-86
2023/03/27 11:38:27;;;;;;;1.77;1.10;;;;;;;;;;5072252;28;20614;-86
2023/03/27 11:40:55;;;;;;;4.03;1.37;;;;;;;;;;5072831;28;20228;-85
2023/03/27 11:43:31;;;;;;;1.63;1.17;;;;;;;;;;5071758;28;20282;-86
2023/03/27 11:46:03;;;;;;;3.23;1.43;;;;;;;;;;5072361;28;20225;-87
2023/03/27 11:48:37;;;;;;;4.17;1.50;;;;;;;;;;5072162;28;20435;-86
2023/03/27 11:51:08;;;;;;;1.17;1.07;;;;;;;;;;5072619;28;20225;-86
2023/03/27 11:53:42;;;;;;;2.60;1.30;;;;;;;;;;5072252;28;20755;-86
2023/03/27 11:56:14;;;;;;;1.67;1.37;;;;;;;;;;5072477;28;20212;-87
2023/03/27 11:58:47;;;;;;;1.63;1.10;;;;;;;;;;5066224;28;20225;-86
2023/03/27 12:01:18;;;;;;;1.37;1.20;;;;;;;;;;5051868;28;20233;-85
2023/03/27 12:04:05;;;;;;;1.83;1.30;;;;;;;;;;5052985;28;20237;-86
2023/03/27 12:06:35;;;;;;;2.07;1.40;;;;;;;;;;5067580;28;20263;-86
2023/03/27 12:09:13;;;;;;;1.20;1.10;;;;;;;;;;5074425;28;20204;-86
2023/03/27 12:11:43;;;;;;;4.13;1.70;;;;;;;;;;5075769;28;20232;-86
2023/03/27 12:14:27;;;;;;;1.40;1.30;;;;;;;;;;5075974;28;20182;-85
2023/03/27 12:17:03;;;;;;;2.27;1.40;;;;;;;;;;5073050;28;20600;-85
2023/03/27 12:19:38;;;;;;;4.33;1.40;;;;;;;;;;5075578;28;20220;-85
2023/03/27 12:22:12;;;;;;;2.23;1.30;;;;;;;;;;5075454;28;20715;-86
2023/03/27 12:24:43;;;;;;;2.50;1.00;;;;;;;;;;5076366;28;20220;-85
2023/03/27 12:27:28;;;;;;;2.73;1.90;;;;;;;;;;5075690;28;20244;-86
2023/03/27 12:30:00;;;;;;;2.17;1.70;;;;;;;;;;5068830;28;20222;-86
2023/03/27 12:32:54;;;;;;;1.90;1.27;;;;;;;;;;5074861;28;20229;-86
2023/03/27 12:35:22;;;;;;;3.10;1.47;;;;;;;;;;5075376;28;20198;-86
2023/03/27 12:37:51;;;;;;;4.27;1.60;;;;;;;;;;5066159;28;20240;-86
2023/03/27 12:40:29;;;;;;;5.20;1.37;;;;;;;;;;5075394;28;20229;-86
2023/03/27 12:43:04;;;;;;;1.43;1.20;;;;;;;;;;5075113;28;20233;-86
2023/03/27 12:45:31;;;;;;;2.30;1.20;;;;;;;;;;5076127;28;20657;-87
2023/03/27 12:48:08;;;;;;;4.13;1.40;;;;;;;;;;5073944;28;20233;-82
2023/03/27 12:50:40;;;;;;;2.53;1.73;;;;;;;;;;5075007;28;20596;-85
2023/03/27 12:53:18;;;;;;;2.23;1.50;;;;;;;;;;5070809;28;20230;-87
2023/03/27 12:55:46;;;;;;;2.80;1.23;;;;;;;;;;5055781;28;20194;-88
2023/03/27 12:58:28;;;;;;;1.37;1.10;;;;;;;;;;5079076;28;20244;-83
2023/03/27 13:00:58;;;;;;;1.40;1.20;;;;;;;;;;5074186;28;20214;-83
2023/03/27 13:03:33;;;;;;;1.23;1.10;;;;;;;;;;5053253;28;20751;-84
2023/03/27 13:06:16;;;;;;;2.77;1.30;;;;;;;;;;5062417;28;20716;-84
2023/03/27 13:08:54;;;;;;;1.20;1.10;;;;;;;;;;5060382;28;20628;-84
2023/03/27 13:11:28;;;;;;;1.60;1.10;;;;;;;;;;5062155;28;20236;-83
2023/03/27 13:14:02;;;;;;;1.90;1.23;;;;;;;;;;5073474;28;20590;-82
2023/03/27 13:16:35;;;;;;;2.57;1.30;;;;;;;;;;5073374;28;20213;-82
2023/03/27 13:19:11;;;;;;;1.83;1.10;;;;;;;;;;5054458;28;20281;-84
2023/03/27 13:21:41;;;;;;;1.20;1.10;;;;;;;;;;5052659;28;20237;-85
2023/03/27 13:24:16;;;;;;;1.70;1.00;;;;;;;;;;5054857;28;20547;-84
2023/03/27 13:27:01;;;;;;;2.40;1.33;;;;;;;;;;5053949;28;20244;-85
2023/03/27 13:29:32;;;;;;;3.57;1.23;;;;;;;;;;5074360;28;20232;-85
2023/03/27 13:32:00;;;;;;;2.13;1.37;;;;;;;;;;5073568;28;20229;-84
2023/03/27 13:34:38;;;;;;;1.70;1.33;;;;;;;;;;5074488;28;20237;-86
2023/03/27 13:37:21;;;;;;;2.60;1.33;;;;;;;;;;5073032;28;20220;-85
2023/03/27 13:40:06;;;;;;;2.87;1.80;;;;;;;;;;5029986;28;20229;-84
2023/03/27 13:42:36;;;;;;;3.37;1.30;;;;;;;;;;5072601;28;20244;-85
2023/03/27 13:45:05;;;;;;;2.30;1.40;;;;;;;;;;5073445;28;20707;-84
2023/03/27 13:47:50;;;;;;;1.50;1.20;;;;;;;;;;5072625;28;20240;-84
2023/03/27 13:50:35;;;;;;;2.10;1.17;;;;;;;;;;5063222;28;20225;-83
2023/03/27 13:53:11;;;;;;;1.30;1.17;;;;;;;;;;5071735;28;20294;-83
2023/03/27 13:55:50;;;;;;;4.00;1.67;;;;;;;;;;5072756;28;20203;-85
2023/03/27 13:58:27;;;;;;;2.33;1.20;;;;;;;;;;5071418;28;20236;-84
2023/03/27 14:01:15;;;;;;;1.47;1.37;;;;;;;;;;5072299;28;20296;-83
2023/03/27 14:03:56;;;;;;;1.20;0.97;;;;;;;;;;5067932;28;20271;-83
2023/03/27 14:06:31;;;;;;;4.13;1.50;;;;;;;;;;5072482;28;20220;-84
2023/03/27 14:09:04;;;;;;;1.07;1.00;;;;;;;;;;5072739;28;20197;-84
2023/03/27 14:11:47;;;;;;;2.00;1.20;;;;;;;;;;5072078;28;20240;-84
2023/03/27 14:14:33;;;;;;;1.10;1.00;;;;;;;;;;5073470;28;20189;-86
2023/03/27 14:17:15;;;;;;;1.10;1.10;;;;;;;;;;5072111;28;20235;-86
2023/03/27 14:19:55;;;;;;;1.57;1.10;;;;;;;;;;5078235;28;20308;-87
2023/03/27 14:22:25;;;;;;;2.10;1.07;;;;;;;;;;5071266;28;20232;-84
2023/03/27 14:24:56;;;;;;;1.80;1.60;;;;;;;;;;5073339;28;20221;-88
2023/03/27 14:27:25;;;;;;;1.40;1.30;;;;;;;;;;5073986;28;20239;-83
2023/03/27 14:30:08;;;;;;;3.33;1.43;;;;;;;;;;5072062;28;20227;-84
2023/03/27 14:32:35;;;;;;;3.33;1.20;;;;;;;;;;5071973;28;20250;-84
2023/03/27 14:35:04;;;;;;;1.90;1.23;;;;;;;;;;5077900;28;20201;-84
2023/03/27 14:37:34;;;;;;;2.57;1.43;;;;;;;;;;5080346;28;20233;-85
2023/03/27 14:40:21;;;;;;;1.77;1.53;;;;;;;;;;5072829;28;20235;-88
2023/03/27 14:42:51;;;;;;;1.50;1.40;;;;;;;;;;5072675;28;20312;-85
2023/03/27 14:45:20;;;;;;;3.23;1.60;;;;;;;;;;5072771;28;20630;-87
2023/03/27 14:47:48;;;;;;;2.83;1.50;;;;;;;;;;5072540;28;20229;-85
2023/03/27 14:50:16;;;;;;;2.53;1.30;;;;;;;;;;5072983;28;20233;-85
2023/03/27 14:52:43;;;;;;;1.27;1.17;;;;;;;;;;5071670;28;20267;-85
2023/03/27 14:55:12;;;;;;;1.67;1.57;;;;;;;;;;5072752;28;20232;-84
2023/03/27 14:57:40;;;;;;;1.97;1.30;;;;;;;;;;5072264;28;20261;-85
2023/03/27 15:00:15;;;;;;;1.10;1.10;;;;;;;;;;5072839;28;20229;-85
2023/03/27 15:02:44;;;;;;;3.50;1.47;;;;;;;;;;5071371;28;20299;-86
2023/03/27 15:05:12;;;;;;;1.77;1.10;;;;;;;;;;5072338;28;20212;-85